createdAt,value
2023-02-26T00:40:39.744Z,3.69
2023-02-26T00:43:06.599Z,3.36
2023-02-26T00:45:35.533Z,3.86
2023-02-26T00:51:12.815Z,3.86
2023-02-26T00:53:40.645Z,3.68
2023-02-26T00:56:07.541Z,3.57
2023-02-26T00:58:38.787Z,3.64
2023-02-26T01:01:08.949Z,3.77
2023-02-26T01:06:23.328Z,3.81
2023-02-26T01:08:56.422Z,3.68
2023-02-26T01:11:26.012Z,4.01
2023-02-26T01:13:54.462Z,3.89
2023-02-26T01:16:22.108Z,3.90
2023-02-26T01:18:58.347Z,3.98
2023-02-26T01:21:26.726Z,3.97
2023-02-26T01:24:01.189Z,4.08
2023-02-26T01:32:24.568Z,4.09
2023-02-26T01:35:03.161Z,4.38
2023-02-26T01:40:53.751Z,4.35
2023-02-26T01:46:02.787Z,4.60
2023-02-26T01:51:22.270Z,4.59
2023-02-26T01:53:52.034Z,4.75
2023-02-26T01:56:21.076Z,4.81
2023-02-26T01:58:48.332Z,4.72
2023-02-26T02:01:15.879Z,4.64
2023-02-26T02:03:44.323Z,5.16
2023-02-26T02:06:15.611Z,5.49
2023-02-26T02:08:44.147Z,5.31
2023-02-26T02:11:11.163Z,5.10
2023-02-26T02:13:38.817Z,5.07
2023-02-26T02:16:07.334Z,5.44
2023-02-26T02:18:35.001Z,5.62
2023-02-26T02:21:08.035Z,5.55
2023-02-26T02:26:37.728Z,5.97
2023-02-26T02:29:24.059Z,6.33
2023-02-26T02:31:52.556Z,6.27
2023-02-26T02:34:24.898Z,6.41
2023-02-26T02:39:45.049Z,6.21
2023-02-26T02:45:06.380Z,6.20
2023-02-26T02:47:49.298Z,5.53
2023-02-26T02:50:19.810Z,5.59
2023-02-26T02:52:49.907Z,5.30
2023-02-26T02:55:20.681Z,4.95
2023-02-26T02:57:55.174Z,5.22
2023-02-26T03:00:22.798Z,4.92
2023-02-26T03:02:52.551Z,4.96
2023-02-26T03:05:20.123Z,4.79
2023-02-26T03:07:53.110Z,4.73
2023-02-26T03:10:21.912Z,4.53
2023-02-26T03:12:56.691Z,4.79
2023-02-26T03:15:25.164Z,4.46
2023-02-26T03:17:52.759Z,4.51
2023-02-26T03:20:20.228Z,4.31
2023-02-26T03:22:47.704Z,4.26
2023-02-26T03:25:15.304Z,4.08
2023-02-26T03:27:43.053Z,4.48
2023-02-26T03:30:10.143Z,3.92
2023-02-26T03:32:41.414Z,4.10
2023-02-26T03:35:09.252Z,4.03
2023-02-26T03:37:37.036Z,3.79
2023-02-26T03:40:12.963Z,3.86
2023-02-26T03:42:39.948Z,4.04
2023-02-26T03:45:07.002Z,3.89
2023-02-26T03:47:34.771Z,3.90
2023-02-26T03:50:01.918Z,3.82
2023-02-26T03:52:29.631Z,3.50
2023-02-26T03:54:57.825Z,3.62
2023-02-26T04:03:56.479Z,3.81
2023-02-26T04:18:32.463Z,3.93
2023-02-26T04:21:00.667Z,4.14
2023-02-26T04:23:30.450Z,4.12
2023-02-26T04:26:00.199Z,3.99
2023-02-26T04:28:40.497Z,3.94
2023-02-26T04:47:54.305Z,4.30
2023-02-26T04:50:39.340Z,4.38
2023-02-26T04:53:10.982Z,4.52
2023-02-26T04:55:46.122Z,4.55
2023-02-26T04:58:28.474Z,4.37
2023-02-26T05:03:52.001Z,4.60
2023-02-26T05:15:20.276Z,4.54
2023-02-26T05:17:49.025Z,4.38
2023-02-26T05:20:16.033Z,4.21
2023-02-26T05:22:43.523Z,4.51
2023-02-26T05:25:11.473Z,4.84
2023-02-26T05:27:39.234Z,4.89
2023-02-26T05:30:07.092Z,4.72
2023-02-26T05:32:34.777Z,4.80
2023-02-26T05:35:02.124Z,4.90
2023-02-26T05:37:29.467Z,4.69
2023-02-26T05:40:00.111Z,4.85
2023-02-26T05:45:36.965Z,4.51
2023-02-26T05:48:03.910Z,4.53
2023-02-26T05:50:30.839Z,4.51
2023-02-26T05:52:57.842Z,4.40
2023-02-26T05:55:24.456Z,4.70
2023-02-26T05:57:51.901Z,4.21
2023-02-26T06:00:20.317Z,4.48
2023-02-26T06:02:47.850Z,4.48
2023-02-26T06:05:14.872Z,4.48
2023-02-26T06:07:41.694Z,4.44
2023-02-26T06:10:10.141Z,4.57
2023-02-26T06:12:37.637Z,4.22
2023-02-26T06:15:06.092Z,4.58
2023-02-26T06:17:33.572Z,4.59
2023-02-26T06:20:09.553Z,4.49
2023-02-26T06:25:47.577Z,4.81
2023-02-26T06:28:17.157Z,4.62
2023-02-26T06:30:45.262Z,4.84
2023-02-26T06:36:28.202Z,4.61
2023-02-26T06:38:57.289Z,4.53
2023-02-26T06:41:27.901Z,4.41
2023-02-26T06:46:50.778Z,4.13
2023-02-26T06:49:19.250Z,4.37
2023-02-26T06:51:50.141Z,4.49
2023-02-26T06:54:17.233Z,4.23
2023-02-26T06:56:45.821Z,4.02
2023-02-26T06:59:12.660Z,4.08
2023-02-26T07:01:41.078Z,3.87
2023-02-26T07:04:10.229Z,3.81
2023-02-26T07:06:37.259Z,3.67
2023-02-26T07:09:04.246Z,3.64
2023-02-26T07:11:31.273Z,3.34
2023-02-26T07:13:58.228Z,3.44
2023-02-26T07:16:27.801Z,3.46
2023-02-26T07:18:56.714Z,3.63
2023-02-26T07:33:51.529Z,3.31
2023-02-26T07:42:27.929Z,3.16
2023-02-26T07:44:56.833Z,3.17
2023-02-26T07:47:25.321Z,3.26
2023-02-26T08:05:29.850Z,3.49
2023-02-26T08:08:02.401Z,3.50
2023-02-26T08:10:37.252Z,3.60
2023-02-26T08:13:06.512Z,3.64
2023-02-26T08:15:36.819Z,3.35
2023-02-26T08:18:12.846Z,3.32
2023-02-26T08:20:39.920Z,3.74
2023-02-26T08:23:06.776Z,3.72
2023-02-26T08:25:34.242Z,3.58
2023-02-26T08:28:00.932Z,3.26
2023-02-26T08:30:27.841Z,3.43
2023-02-26T08:32:54.460Z,3.46
2023-02-26T08:35:21.015Z,3.68
2023-02-26T08:37:48.167Z,3.38
2023-02-26T08:40:15.320Z,3.71
2023-02-26T08:42:42.271Z,3.56
2023-02-26T08:45:10.709Z,3.59
2023-02-26T08:47:42.317Z,3.37
2023-02-26T08:50:16.127Z,3.73
2023-02-26T08:52:44.977Z,3.64
2023-02-26T08:55:12.704Z,3.80
2023-02-26T08:57:39.574Z,3.41
2023-02-26T09:00:10.488Z,3.32
2023-02-26T09:02:41.050Z,3.63
2023-02-26T09:05:08.226Z,3.21
2023-02-26T09:22:56.454Z,3.38
2023-02-26T09:25:23.642Z,3.30
2023-02-26T09:27:50.898Z,3.19
2023-02-26T09:30:19.395Z,3.25
2023-02-26T09:32:47.215Z,3.30
2023-02-26T09:35:14.920Z,3.59
2023-02-26T09:37:42.547Z,3.47
2023-02-26T09:40:09.797Z,3.29
2023-02-26T09:42:38.598Z,3.36
2023-02-26T09:45:07.746Z,3.34
2023-02-26T09:47:34.484Z,3.36
2023-02-26T09:50:02.490Z,3.25
2023-02-26T09:52:30.448Z,3.27
2023-02-26T09:54:58.341Z,3.25
2023-02-26T09:57:26.883Z,3.42
2023-02-26T09:59:59.083Z,3.40
2023-02-26T10:02:26.691Z,3.17
2023-02-26T10:04:53.761Z,3.40
2023-02-26T10:10:24.089Z,3.14
2023-02-26T10:15:32.812Z,3.17
2023-02-26T10:18:00.436Z,3.14
2023-02-26T10:20:32.439Z,3.04
2023-02-26T10:23:15.618Z,3.07
2023-02-26T10:25:45.895Z,3.24
2023-02-26T10:31:04.410Z,3.12
2023-02-26T10:33:31.849Z,3.01
2023-02-26T10:35:59.444Z,2.69
2023-02-26T10:38:27.285Z,3.00
2023-02-26T10:40:55.276Z,2.87
2023-02-26T10:43:22.973Z,2.96
2023-02-26T11:03:40.260Z,2.69
2023-02-26T11:06:08.086Z,2.55
2023-02-26T11:11:45.390Z,2.93
2023-02-26T11:14:13.302Z,2.77
2023-02-26T11:16:40.090Z,2.79
2023-02-26T11:19:07.678Z,2.60
2023-02-26T11:21:35.093Z,2.73
2023-02-26T11:24:02.606Z,2.52
2023-02-26T11:26:33.607Z,2.68
2023-02-26T11:29:02.056Z,2.52
2023-02-26T11:31:30.071Z,2.61
2023-02-26T11:33:57.377Z,2.45
2023-02-26T11:36:25.031Z,2.52
2023-02-26T11:38:52.115Z,2.65
2023-02-26T11:41:19.006Z,2.39
2023-02-26T11:43:46.568Z,2.46
2023-02-26T11:46:14.370Z,2.32
2023-02-26T11:48:41.966Z,2.36
2023-02-26T11:51:10.450Z,2.56
2023-02-26T11:56:53.386Z,2.51
2023-02-26T11:59:21.950Z,2.57
2023-02-26T12:01:50.375Z,2.57
2023-02-26T12:04:17.750Z,2.21
2023-02-26T12:06:45.170Z,2.66
2023-02-26T12:09:11.842Z,2.46
2023-02-26T12:11:40.185Z,2.36
2023-02-26T12:14:06.970Z,2.35
2023-02-26T12:16:33.548Z,2.48
2023-02-26T12:19:00.587Z,2.45
2023-02-26T12:21:27.756Z,2.41
2023-02-26T12:23:54.970Z,2.38
2023-02-26T12:35:21.678Z,2.45
2023-02-26T12:37:50.812Z,2.42
2023-02-26T12:56:49.138Z,2.22
2023-02-26T12:59:16.653Z,2.28
2023-02-26T13:01:59.723Z,2.05
2023-02-26T13:04:45.149Z,2.48
2023-02-26T13:07:17.168Z,2.20
2023-02-26T13:09:46.338Z,2.64
2023-02-26T13:12:38.136Z,4.98
2023-02-26T13:25:17.890Z,2.37
2023-02-26T13:30:52.635Z,2.21
2023-02-26T19:11:30.770Z,4.16
2023-02-26T19:14:01.254Z,3.72
2023-02-26T19:16:28.340Z,4.04
2023-02-26T19:19:02.462Z,4.16
2023-02-26T19:21:43.531Z,3.98
2023-02-26T19:33:00.620Z,3.85
2023-02-26T19:50:45.826Z,3.47
2023-02-26T19:53:16.032Z,3.59
2023-02-26T19:58:54.726Z,3.56
2023-02-26T20:01:25.553Z,3.47
2023-02-26T20:03:58.614Z,3.54
2023-02-26T20:06:26.040Z,3.84
2023-02-26T20:08:52.933Z,3.63
2023-02-26T20:11:20.641Z,3.55
2023-02-26T20:13:50.240Z,3.71
2023-02-26T21:29:13.209Z,4.67
2023-02-26T21:31:44.607Z,4.88
2023-02-26T21:53:32.441Z,4.21
2023-02-26T21:56:06.286Z,4.18
2023-02-26T21:58:45.045Z,4.62
2023-02-26T22:01:16.680Z,4.44
2023-02-26T22:03:46.002Z,4.54
2023-02-26T22:06:13.128Z,4.72
2023-02-26T22:08:44.417Z,4.85
2023-02-26T22:11:11.646Z,4.79
2023-02-26T22:13:42.184Z,4.82
2023-02-26T22:16:25.575Z,5.17
2023-02-26T22:19:14.992Z,5.62
2023-02-26T22:21:48.028Z,5.88
2023-02-26T22:24:18.580Z,6.18
2023-02-26T22:26:48.155Z,6.42
2023-02-26T22:29:28.789Z,6.14
2023-02-26T22:31:56.119Z,6.29
2023-02-26T22:34:29.820Z,6.14
2023-02-26T22:37:00.903Z,6.19
2023-02-26T22:39:38.264Z,6.01
2023-02-26T22:42:25.909Z,5.88
2023-02-26T22:47:43.551Z,6.16
2023-02-26T22:50:19.442Z,6.73
2023-02-26T22:52:57.803Z,6.43
2023-02-26T22:55:26.129Z,6.37
2023-02-26T22:57:58.652Z,6.22
2023-02-26T23:00:34.334Z,6.28
2023-02-26T23:03:10.168Z,5.94
2023-02-26T23:05:43.214Z,6.00
2023-02-26T23:08:19.061Z,6.01
2023-02-26T23:13:46.043Z,5.86
2023-02-26T23:16:24.100Z,6.53
2023-02-26T23:21:59.044Z,6.06
2023-02-26T23:24:36.270Z,5.96
2023-02-26T23:27:11.784Z,6.43
2023-02-26T23:29:39.199Z,6.47
2023-02-26T23:32:12.450Z,6.34
2023-02-26T23:34:42.509Z,6.46
2023-02-26T23:37:19.548Z,5.96
2023-02-26T23:39:51.716Z,6.09
2023-02-26T23:42:28.735Z,6.11
2023-02-26T23:50:58.259Z,6.08
2023-02-26T23:53:28.242Z,6.10
2023-02-26T23:56:03.562Z,6.03
2023-02-26T23:58:33.235Z,5.93
